createdAt,value
2016-11-22T00:00:45.323Z,42.05
2016-11-22T00:01:54.334Z,41.67
2016-11-22T00:03:03.980Z,41.86
2016-11-22T00:04:12.996Z,41.67
2016-11-22T00:05:22.319Z,41.77
2016-11-22T00:06:31.640Z,41.96
2016-11-22T00:07:40.668Z,41.77
2016-11-22T00:08:49.727Z,41.67
2016-11-22T00:09:58.440Z,41.77
2016-11-22T00:11:07.750Z,41.67
2016-11-22T00:12:16.756Z,41.86
2016-11-22T00:13:25.442Z,41.77
2016-11-22T00:14:34.447Z,41.67
2016-11-22T00:15:43.474Z,41.77
2016-11-22T00:16:52.482Z,41.86
2016-11-22T00:18:01.183Z,41.77
2016-11-22T00:19:10.577Z,41.86
2016-11-22T00:20:19.897Z,41.77
2016-11-22T00:21:29.262Z,41.77
2016-11-22T00:22:38.582Z,41.57
2016-11-22T00:23:47.314Z,41.77
2016-11-22T00:24:56.953Z,41.77
2016-11-22T00:26:05.645Z,41.67
2016-11-22T00:27:14.966Z,41.77
2016-11-22T00:28:23.989Z,41.75
2016-11-22T00:29:33.309Z,41.77
2016-11-22T00:30:42.332Z,41.86
2016-11-22T00:31:51.654Z,41.67
2016-11-22T00:33:00.662Z,41.86
2016-11-22T00:34:09.357Z,41.96
2016-11-22T00:35:18.394Z,41.67
2016-11-22T00:36:27.433Z,42.15
2016-11-22T00:37:36.738Z,41.96
2016-11-22T00:38:45.737Z,41.77
2016-11-22T00:39:54.747Z,42.03
2016-11-22T00:41:03.771Z,41.94
2016-11-22T00:42:12.776Z,41.94
2016-11-22T00:43:21.786Z,42.23
2016-11-22T00:44:30.812Z,41.86
2016-11-22T00:45:40.136Z,41.75
2016-11-22T00:46:48.873Z,41.94
2016-11-22T00:47:57.573Z,42.13
2016-11-22T00:49:06.876Z,41.94
2016-11-22T00:50:15.592Z,42.13
2016-11-22T00:51:24.297Z,41.84
2016-11-22T00:52:33.313Z,41.84
2016-11-22T00:53:42.394Z,42.03
2016-11-22T00:54:51.718Z,41.84
2016-11-22T00:56:01.359Z,41.77
2016-11-22T00:57:10.708Z,41.94
2016-11-22T00:58:20.070Z,42.03
2016-11-22T00:59:28.797Z,41.75
2016-11-22T01:00:37.878Z,42.15
2016-11-22T01:01:46.629Z,42.03
2016-11-22T01:02:55.366Z,41.75
2016-11-22T01:04:04.385Z,41.75
2016-11-22T01:05:13.404Z,41.75
2016-11-22T01:06:22.763Z,42.13
2016-11-22T01:07:32.112Z,41.77
2016-11-22T01:08:40.846Z,41.96
2016-11-22T01:09:49.859Z,42.05
2016-11-22T01:10:58.614Z,41.84
2016-11-22T01:12:07.668Z,41.77
2016-11-22T01:13:17.016Z,41.94
2016-11-22T01:14:26.039Z,42.23
2016-11-22T01:15:35.342Z,41.94
2016-11-22T01:16:44.688Z,42.13
2016-11-22T01:17:53.755Z,42.13
2016-11-22T01:19:02.767Z,41.94
2016-11-22T01:20:11.469Z,41.75
2016-11-22T01:21:21.137Z,41.84
2016-11-22T01:22:30.781Z,42.03
2016-11-22T01:23:39.575Z,42.13
2016-11-22T01:24:48.321Z,41.94
2016-11-22T01:25:57.338Z,41.84
2016-11-22T01:27:06.334Z,42.13
2016-11-22T01:28:15.045Z,41.55
2016-11-22T01:29:24.060Z,42.23
2016-11-22T01:30:33.713Z,42.13
2016-11-22T01:31:42.480Z,41.75
2016-11-22T01:32:51.511Z,42.23
2016-11-22T01:34:00.517Z,42.03
2016-11-22T01:35:09.570Z,42.03
2016-11-22T01:36:18.295Z,41.84
2016-11-22T01:37:26.990Z,41.94
2016-11-22T01:38:35.715Z,42.03
2016-11-22T01:39:44.755Z,41.94
2016-11-22T01:40:53.759Z,42.13
2016-11-22T01:42:03.094Z,42.13
2016-11-22T01:43:12.100Z,42.13
2016-11-22T01:44:21.127Z,41.94
2016-11-22T01:45:30.769Z,42.13
2016-11-22T01:46:40.417Z,41.94
2016-11-22T01:47:49.807Z,42.03
2016-11-22T01:48:58.520Z,41.94
2016-11-22T01:50:08.146Z,42.03
2016-11-22T01:51:17.135Z,41.94
2016-11-22T01:52:25.900Z,42.13
2016-11-22T01:53:34.955Z,42.13
2016-11-22T01:54:43.696Z,42.13
2016-11-22T01:55:52.727Z,42.13
2016-11-22T01:57:02.116Z,41.94
2016-11-22T01:58:11.485Z,41.84
2016-11-22T01:59:20.510Z,41.84
2016-11-22T02:00:29.515Z,42.13
2016-11-22T02:01:38.263Z,41.94
2016-11-22T02:02:47.277Z,41.94
2016-11-22T02:03:56.312Z,41.84
2016-11-22T02:05:05.365Z,42.03
2016-11-22T02:06:14.140Z,41.84
2016-11-22T02:07:23.524Z,41.94
2016-11-22T02:08:32.667Z,41.94
2016-11-22T02:09:41.697Z,42.03
2016-11-22T02:10:50.757Z,42.03
2016-11-22T02:11:59.789Z,42.03
2016-11-22T02:13:08.534Z,41.94
2016-11-22T02:14:18.453Z,41.84
2016-11-22T02:15:27.488Z,41.84
2016-11-22T02:16:36.533Z,41.94
2016-11-22T02:17:45.255Z,42.13
2016-11-22T02:18:54.594Z,42.03
2016-11-22T02:20:03.289Z,42.03
2016-11-22T02:21:12.314Z,42.13
2016-11-22T02:22:21.046Z,42.13
2016-11-22T02:23:30.061Z,42.13
2016-11-22T02:24:39.069Z,42.03
2016-11-22T02:25:47.867Z,42.13
2016-11-22T02:26:56.929Z,41.94
2016-11-22T02:28:06.235Z,42.03
2016-11-22T02:29:15.908Z,41.94
2016-11-22T02:30:24.626Z,41.94
2016-11-22T02:31:33.331Z,41.94
2016-11-22T02:32:42.397Z,42.03
2016-11-22T02:33:51.460Z,42.03
2016-11-22T02:35:00.203Z,42.03
2016-11-22T02:36:08.915Z,42.03
2016-11-22T02:37:17.959Z,42.13
2016-11-22T02:38:26.983Z,42.03
2016-11-22T02:39:36.015Z,41.94
2016-11-22T02:40:45.041Z,41.94
2016-11-22T02:41:53.779Z,42.13
2016-11-22T02:43:02.799Z,42.03
2016-11-22T02:44:11.821Z,42.13
2016-11-22T02:45:20.552Z,42.03
2016-11-22T02:46:29.883Z,42.13
2016-11-22T02:47:38.593Z,42.13
2016-11-22T02:48:48.523Z,42.03
2016-11-22T02:49:57.564Z,42.03
2016-11-22T02:51:07.185Z,42.13
2016-11-22T02:52:16.884Z,41.84
2016-11-22T02:53:25.578Z,41.94
2016-11-22T02:54:34.276Z,42.13
2016-11-22T02:55:43.302Z,42.13
2016-11-22T02:56:52.625Z,42.13
2016-11-22T02:58:01.628Z,41.94
2016-11-22T02:59:10.643Z,41.94
2016-11-22T03:00:19.645Z,42.03
2016-11-22T03:01:28.362Z,41.94
2016-11-22T03:02:37.664Z,41.94
2016-11-22T03:03:46.360Z,41.94
2016-11-22T03:04:55.058Z,42.03
2016-11-22T03:06:04.089Z,42.23
2016-11-22T03:07:13.093Z,42.03
2016-11-22T03:08:21.838Z,41.94
2016-11-22T03:09:30.868Z,42.13
2016-11-22T03:10:39.571Z,42.13
2016-11-22T03:11:48.660Z,42.13
2016-11-22T03:12:57.366Z,42.13
2016-11-22T03:14:06.692Z,41.84
2016-11-22T03:15:15.726Z,42.13
2016-11-22T03:16:25.080Z,42.03
2016-11-22T03:17:34.406Z,41.94
2016-11-22T03:18:43.760Z,42.03
2016-11-22T03:19:52.449Z,41.94
2016-11-22T03:21:01.161Z,42.13
2016-11-22T03:22:10.178Z,41.75
2016-11-22T03:23:19.508Z,42.23
2016-11-22T03:24:28.826Z,42.13
2016-11-22T03:25:38.449Z,42.03
2016-11-22T03:26:47.763Z,42.03
2016-11-22T03:27:56.464Z,42.03
2016-11-22T03:29:05.512Z,42.13
2016-11-22T03:30:14.240Z,41.84
2016-11-22T03:31:23.277Z,41.94
2016-11-22T03:32:32.903Z,42.13
2016-11-22T03:33:42.227Z,41.65
2016-11-22T03:34:51.221Z,41.94
2016-11-22T03:36:00.308Z,42.23
2016-11-22T03:37:09.009Z,42.13
2016-11-22T03:38:17.705Z,42.03
2016-11-22T03:39:26.742Z,42.13
2016-11-22T03:40:36.678Z,42.03
2016-11-22T03:41:46.365Z,42.03
2016-11-22T03:42:55.374Z,42.13
2016-11-22T03:44:04.071Z,42.03
2016-11-22T03:45:13.690Z,41.84
2016-11-22T03:46:23.004Z,42.03
2016-11-22T03:47:31.999Z,42.03
2016-11-22T03:48:41.017Z,41.84
2016-11-22T03:49:50.620Z,42.03
2016-11-22T03:50:59.613Z,41.84
2016-11-22T03:52:08.305Z,42.03
2016-11-22T03:53:17.309Z,42.03
2016-11-22T03:54:26.320Z,42.13
2016-11-22T03:55:35.623Z,42.23
2016-11-22T03:56:44.958Z,42.13
2016-11-22T03:57:53.959Z,42.03
2016-11-22T03:59:02.662Z,42.03
2016-11-22T04:00:11.971Z,42.03
2016-11-22T04:01:21.280Z,41.94
2016-11-22T04:02:30.577Z,41.84
2016-11-22T04:03:39.573Z,42.03
2016-11-22T04:04:48.267Z,42.03
2016-11-22T04:05:57.297Z,42.13
2016-11-22T04:07:06.337Z,42.13
2016-11-22T04:08:15.371Z,41.75
2016-11-22T04:09:24.381Z,41.94
2016-11-22T04:10:33.761Z,41.94
2016-11-22T04:11:43.138Z,42.23
2016-11-22T04:12:52.461Z,42.03
2016-11-22T04:14:01.493Z,41.94
2016-11-22T04:15:11.120Z,42.13
2016-11-22T04:16:20.418Z,42.23
2016-11-22T04:17:29.422Z,42.13
2016-11-22T04:18:38.432Z,42.13
2016-11-22T04:19:47.473Z,41.94
2016-11-22T04:20:56.238Z,41.94
2016-11-22T04:22:05.550Z,42.23
2016-11-22T04:23:14.556Z,41.94
2016-11-22T04:24:23.324Z,42.23
2016-11-22T04:25:32.337Z,42.03
2016-11-22T04:26:41.694Z,41.94
2016-11-22T04:27:51.349Z,41.94
2016-11-22T04:29:00.160Z,41.84
2016-11-22T04:30:09.552Z,41.84
2016-11-22T04:31:18.260Z,41.75
2016-11-22T04:32:27.262Z,41.75
2016-11-22T04:33:36.576Z,42.13
2016-11-22T04:34:46.023Z,41.94
2016-11-22T04:35:54.724Z,42.03
2016-11-22T04:37:03.771Z,41.75
2016-11-22T04:38:12.521Z,41.63
2016-11-22T04:39:21.546Z,42.03
2016-11-22T04:40:30.853Z,41.75
2016-11-22T04:41:39.893Z,41.65
2016-11-22T04:42:48.890Z,42.03
2016-11-22T04:43:57.593Z,41.84
2016-11-22T04:45:06.908Z,41.65
2016-11-22T04:46:16.593Z,41.65
2016-11-22T04:47:25.309Z,41.75
2016-11-22T04:48:34.085Z,41.65
2016-11-22T04:49:42.792Z,41.75
2016-11-22T04:50:52.118Z,41.84
2016-11-22T04:52:01.219Z,41.65
2016-11-22T04:53:09.955Z,41.65
2016-11-22T04:54:18.662Z,41.75
2016-11-22T04:55:27.763Z,41.72
2016-11-22T04:56:36.794Z,41.84
2016-11-22T04:57:45.557Z,41.65
2016-11-22T04:58:54.305Z,41.65
2016-11-22T05:00:03.054Z,41.65
2016-11-22T05:01:12.361Z,41.75
2016-11-22T05:02:22.005Z,41.94
2016-11-22T05:03:31.015Z,41.82
2016-11-22T05:04:40.420Z,41.82
2016-11-22T05:05:49.171Z,41.65
2016-11-22T05:06:58.541Z,41.75
2016-11-22T05:08:07.605Z,41.84
2016-11-22T05:09:16.669Z,41.94
2016-11-22T05:10:25.428Z,41.94
2016-11-22T05:11:34.749Z,41.84
2016-11-22T05:12:43.758Z,41.84
2016-11-22T05:13:52.877Z,41.84
2016-11-22T05:15:01.583Z,41.84
2016-11-22T05:16:11.249Z,41.75
2016-11-22T05:17:20.557Z,41.84
2016-11-22T05:18:30.535Z,41.75
2016-11-22T05:19:39.551Z,41.65
2016-11-22T05:20:48.573Z,41.65
2016-11-22T05:21:58.223Z,41.65
2016-11-22T05:23:07.289Z,41.65
2016-11-22T05:24:16.070Z,41.65
2016-11-22T05:25:25.085Z,41.75
2016-11-22T05:26:34.090Z,41.65
2016-11-22T05:27:43.118Z,41.94
2016-11-22T05:28:52.116Z,41.65
2016-11-22T05:30:01.463Z,41.94
2016-11-22T05:31:10.508Z,41.65
2016-11-22T05:32:19.223Z,41.65
2016-11-22T05:33:28.249Z,41.65
2016-11-22T05:34:37.293Z,41.55
2016-11-22T05:35:46.348Z,41.55
2016-11-22T05:36:55.050Z,41.65
2016-11-22T05:38:04.054Z,41.84
2016-11-22T05:39:13.056Z,41.94
2016-11-22T05:40:21.758Z,41.36
2016-11-22T05:41:31.077Z,41.17
2016-11-22T05:42:40.088Z,41.27
2016-11-22T05:43:49.136Z,40.97
2016-11-22T05:44:58.207Z,40.78
2016-11-22T05:46:07.221Z,40.97
2016-11-22T05:47:16.587Z,40.88
2016-11-22T05:48:25.297Z,40.69
2016-11-22T05:49:34.315Z,40.61
2016-11-22T05:50:43.647Z,40.7
2016-11-22T05:51:52.665Z,40.61
2016-11-22T05:53:01.980Z,40.8
2016-11-22T05:54:10.992Z,40.32
2016-11-22T05:55:20.323Z,40.42
2016-11-22T05:56:30.269Z,40.42
2016-11-22T05:57:39.578Z,40.51
2016-11-22T05:58:48.893Z,39.84
2016-11-22T05:59:57.913Z,40.05
2016-11-22T06:01:06.659Z,39.86
2016-11-22T06:02:15.990Z,39.76
2016-11-22T06:03:25.334Z,39.76
2016-11-22T06:04:34.333Z,39.76
2016-11-22T06:05:43.331Z,39.28
2016-11-22T06:06:52.366Z,39.28
2016-11-22T06:08:01.410Z,39.37
2016-11-22T06:09:10.096Z,39.57
2016-11-22T06:10:19.709Z,39.47
2016-11-22T06:11:28.715Z,39.28
2016-11-22T06:12:37.785Z,38.99
2016-11-22T06:13:46.811Z,39.28
2016-11-22T06:14:55.887Z,39.09
2016-11-22T06:16:04.927Z,39.39
2016-11-22T06:17:13.938Z,39.49
2016-11-22T06:18:22.940Z,39.01
2016-11-22T06:19:31.949Z,38.81
2016-11-22T06:20:40.655Z,38.91
2016-11-22T06:21:49.654Z,38.71
2016-11-22T06:22:58.348Z,38.71
2016-11-22T06:24:07.052Z,38.71
2016-11-22T06:25:15.763Z,38.62
2016-11-22T06:26:25.772Z,38.71
2016-11-22T06:27:35.701Z,38.62
2016-11-22T06:28:45.325Z,38.71
2016-11-22T06:29:54.323Z,38.25
2016-11-22T06:31:03.061Z,38.45
2016-11-22T06:32:11.755Z,38.16
2016-11-22T06:33:20.769Z,38.25
2016-11-22T06:34:29.825Z,38.25
2016-11-22T06:35:39.279Z,38.25
2016-11-22T06:36:48.300Z,38.25
2016-11-22T06:37:57.023Z,38.25
2016-11-22T06:39:06.068Z,38.45
2016-11-22T06:40:15.387Z,38.25
2016-11-22T06:41:24.705Z,38.25
2016-11-22T06:42:33.727Z,38.35
2016-11-22T06:43:42.423Z,38.35
2016-11-22T06:44:51.137Z,38.35
2016-11-22T06:45:59.831Z,38.54
2016-11-22T06:47:08.833Z,38.54
2016-11-22T06:48:17.849Z,38.74
2016-11-22T06:49:26.868Z,38.18
2016-11-22T06:50:35.586Z,38.08
2016-11-22T06:51:44.303Z,37.98
2016-11-22T06:52:53.040Z,38.06
2016-11-22T06:54:02.358Z,38.18
2016-11-22T06:55:11.990Z,38.54
2016-11-22T06:56:21.900Z,38.25
2016-11-22T06:57:30.911Z,38.83
2016-11-22T06:58:39.616Z,38.93
2016-11-22T06:59:48.624Z,39.51
2016-11-22T07:00:57.636Z,39.22
2016-11-22T07:02:06.638Z,38.93
2016-11-22T07:03:15.947Z,39.29
2016-11-22T07:04:24.646Z,39.11
2016-11-22T07:05:33.346Z,38.91
2016-11-22T07:06:42.044Z,39.01
2016-11-22T07:07:51.343Z,39.2
2016-11-22T07:09:00.648Z,39.2
2016-11-22T07:10:10.261Z,38.91
2016-11-22T07:11:19.280Z,39.69
2016-11-22T07:12:28.608Z,39.2
2016-11-22T07:13:37.642Z,39.01
2016-11-22T07:14:46.659Z,39.01
2016-11-22T07:15:55.387Z,39.29
2016-11-22T07:17:04.708Z,39.59
2016-11-22T07:18:14.016Z,39.29
2016-11-22T07:19:23.020Z,39.59
2016-11-22T07:20:31.735Z,39.59
2016-11-22T07:21:41.042Z,39.49
2016-11-22T07:22:50.053Z,39.49
2016-11-22T07:23:59.676Z,39.39
2016-11-22T07:25:08.362Z,39.29
2016-11-22T07:26:17.089Z,39.29
2016-11-22T07:27:25.804Z,39.29
2016-11-22T07:28:34.824Z,39.29
2016-11-22T07:29:44.152Z,39.29
2016-11-22T07:30:52.856Z,39.49
2016-11-22T07:32:01.571Z,39.29
2016-11-22T07:33:10.322Z,39.29
2016-11-22T07:34:19.047Z,39.29
2016-11-22T07:35:28.085Z,39.59
2016-11-22T07:36:37.112Z,39.2
2016-11-22T07:37:46.141Z,39.49
2016-11-22T07:38:55.798Z,39.49
2016-11-22T07:40:05.109Z,39.29
2016-11-22T07:41:14.423Z,39.29
2016-11-22T07:42:23.766Z,39.39
2016-11-22T07:43:32.762Z,39.59
2016-11-22T07:44:41.785Z,39.69
2016-11-22T07:45:50.495Z,39.66
2016-11-22T07:46:59.820Z,39.69
2016-11-22T07:48:08.847Z,39.69
2016-11-22T07:49:18.470Z,39.59
2016-11-22T07:50:27.770Z,39.76
2016-11-22T07:51:36.781Z,39.86
2016-11-22T07:52:46.418Z,39.87
2016-11-22T07:53:55.735Z,39.76
2016-11-22T07:55:04.745Z,39.86
2016-11-22T07:56:14.073Z,39.78
2016-11-22T07:57:22.789Z,39.76
2016-11-22T07:58:31.820Z,39.86
2016-11-22T07:59:41.446Z,39.69
2016-11-22T08:00:50.767Z,39.86
2016-11-22T08:01:59.794Z,39.76
2016-11-22T08:03:08.880Z,39.76
2016-11-22T08:04:17.919Z,39.76
2016-11-22T08:05:26.965Z,39.76
2016-11-22T08:06:36.296Z,39.76
2016-11-22T08:07:45.314Z,39.86
2016-11-22T08:08:54.648Z,39.86
2016-11-22T08:10:03.656Z,39.95
2016-11-22T08:11:12.979Z,39.76
2016-11-22T08:12:22.331Z,39.86
2016-11-22T08:13:31.946Z,40.05
2016-11-22T08:14:40.658Z,39.86
2016-11-22T08:15:50.015Z,39.95
2016-11-22T08:16:58.716Z,39.95
2016-11-22T08:18:07.734Z,39.95
2016-11-22T08:19:17.041Z,39.86
2016-11-22T08:20:25.745Z,39.95
2016-11-22T08:21:34.768Z,39.95
2016-11-22T08:22:43.772Z,39.86
2016-11-22T08:23:52.793Z,39.66
2016-11-22T08:25:01.834Z,39.76
2016-11-22T08:26:10.835Z,39.95
2016-11-22T08:27:19.584Z,40.05
2016-11-22T08:28:28.611Z,39.86
2016-11-22T08:29:37.643Z,39.95
2016-11-22T08:30:46.358Z,39.95
2016-11-22T08:31:55.676Z,39.95
2016-11-22T08:33:04.996Z,39.95
2016-11-22T08:34:13.723Z,39.95
2016-11-22T08:35:23.081Z,40.05
2016-11-22T08:36:32.403Z,39.86
2016-11-22T08:37:41.169Z,40.05
2016-11-22T08:38:50.498Z,39.95
2016-11-22T08:39:59.561Z,39.95
2016-11-22T08:41:08.606Z,40.05
2016-11-22T08:42:17.384Z,39.95
2016-11-22T08:43:27.324Z,39.95
2016-11-22T08:44:36.399Z,39.95
2016-11-22T08:45:45.740Z,39.95
2016-11-22T08:46:55.360Z,39.95
2016-11-22T08:48:04.380Z,40.05
2016-11-22T08:49:13.417Z,39.95
2016-11-22T08:50:22.418Z,39.86
2016-11-22T08:51:31.778Z,39.86
2016-11-22T08:52:40.792Z,39.86
2016-11-22T08:53:49.522Z,39.86
2016-11-22T08:54:58.298Z,39.95
2016-11-22T08:56:07.030Z,39.76
2016-11-22T08:57:16.363Z,39.95
2016-11-22T08:58:25.114Z,39.95
2016-11-22T08:59:33.839Z,39.76
2016-11-22T09:00:42.863Z,39.86
2016-11-22T09:01:51.567Z,39.86
2016-11-22T09:03:00.596Z,39.95
2016-11-22T09:04:09.614Z,39.95
2016-11-22T09:05:18.959Z,39.95
2016-11-22T09:06:27.693Z,39.76
2016-11-22T09:07:37.024Z,39.95
2016-11-22T09:08:46.031Z,39.95
2016-11-22T09:09:55.049Z,39.76
2016-11-22T09:11:04.368Z,39.86
2016-11-22T09:12:13.068Z,39.95
2016-11-22T09:13:21.831Z,39.76
2016-11-22T09:14:30.544Z,39.86
2016-11-22T09:15:39.857Z,39.86
2016-11-22T09:16:49.561Z,39.76
2016-11-22T09:17:58.609Z,39.95
2016-11-22T09:19:07.625Z,39.95
2016-11-22T09:20:16.940Z,39.76
2016-11-22T09:21:25.663Z,39.76
2016-11-22T09:22:34.684Z,39.76
2016-11-22T09:23:43.406Z,39.95
2016-11-22T09:24:52.124Z,40.05
2016-11-22T09:26:01.120Z,39.86
2016-11-22T09:27:10.122Z,39.95
2016-11-22T09:28:19.142Z,39.86
2016-11-22T09:29:28.153Z,39.76
2016-11-22T09:30:37.171Z,39.76
2016-11-22T09:31:46.211Z,39.86
2016-11-22T09:32:55.227Z,39.76
2016-11-22T09:34:04.247Z,39.76
2016-11-22T09:35:13.261Z,39.76
2016-11-22T09:36:22.896Z,39.76
2016-11-22T09:37:31.988Z,39.76
2016-11-22T09:38:41.024Z,39.86
2016-11-22T09:39:50.354Z,39.86
2016-11-22T09:40:59.386Z,39.95
2016-11-22T09:42:08.392Z,39.76
2016-11-22T09:43:17.729Z,39.76
2016-11-22T09:44:27.340Z,39.76
2016-11-22T09:45:36.685Z,39.76
2016-11-22T09:46:45.417Z,39.76
2016-11-22T09:47:54.785Z,39.76
2016-11-22T09:49:04.767Z,39.76
2016-11-22T09:50:13.784Z,39.86
2016-11-22T09:51:22.526Z,39.76
2016-11-22T09:52:31.254Z,39.86
2016-11-22T09:53:39.977Z,39.86
2016-11-22T09:54:48.720Z,39.66
2016-11-22T09:55:58.681Z,39.57
2016-11-22T09:57:07.707Z,39.76
2016-11-22T09:58:17.043Z,39.66
2016-11-22T09:59:25.794Z,39.66
2016-11-22T10:00:34.568Z,39.57
2016-11-22T10:01:43.589Z,39.28
2016-11-22T10:02:52.639Z,39.47
2016-11-22T10:04:01.332Z,39.57
2016-11-22T10:05:10.660Z,39.57
2016-11-22T10:06:19.682Z,39.28
2016-11-22T10:07:28.684Z,39.37
2016-11-22T10:08:37.996Z,39.57
2016-11-22T10:09:46.702Z,39.47
2016-11-22T10:10:56.056Z,39.66
2016-11-22T10:12:04.764Z,39.37
2016-11-22T10:13:14.403Z,39.28
2016-11-22T10:14:23.119Z,39.47
2016-11-22T10:15:32.460Z,39.57
2016-11-22T10:16:41.501Z,39.47
2016-11-22T10:17:50.241Z,39.37
2016-11-22T10:18:59.565Z,39.57
2016-11-22T10:20:08.273Z,39.57
2016-11-22T10:21:17.603Z,39.57
2016-11-22T10:22:26.663Z,39.37
2016-11-22T10:23:35.994Z,39.66
2016-11-22T10:24:44.693Z,39.66
2016-11-22T10:25:53.386Z,39.57
2016-11-22T10:27:02.403Z,39.57
2016-11-22T10:28:11.417Z,39.76
2016-11-22T10:29:20.463Z,39.66
2016-11-22T10:30:29.485Z,39.76
2016-11-22T10:31:38.500Z,39.66
2016-11-22T10:32:47.514Z,39.76
2016-11-22T10:33:56.583Z,39.76
2016-11-22T10:35:05.608Z,39.86
2016-11-22T10:36:15.227Z,39.94
2016-11-22T10:37:23.950Z,39.74
2016-11-22T10:38:33.299Z,39.84
2016-11-22T10:39:42.304Z,39.84
2016-11-22T10:40:51.032Z,39.64
2016-11-22T10:42:00.378Z,39.54
2016-11-22T10:43:09.084Z,39.54
2016-11-22T10:44:17.796Z,39.84
2016-11-22T10:45:26.842Z,39.54
2016-11-22T10:46:35.555Z,39.84
2016-11-22T10:47:44.601Z,39.54
2016-11-22T10:48:53.644Z,39.64
2016-11-22T10:50:02.668Z,39.64
2016-11-22T10:51:11.712Z,39.64
2016-11-22T10:52:20.751Z,39.54
2016-11-22T10:53:30.167Z,39.64
2016-11-22T10:54:38.873Z,39.64
2016-11-22T10:55:47.946Z,39.64
2016-11-22T10:56:57.605Z,39.36
2016-11-22T10:58:07.227Z,39.26
2016-11-22T10:59:16.239Z,39.54
2016-11-22T11:00:24.949Z,39.16
2016-11-22T11:01:34.937Z,39.45
2016-11-22T11:02:44.009Z,39.16
2016-11-22T11:03:53.421Z,39.64
2016-11-22T11:05:02.456Z,39.54
2016-11-22T11:06:11.795Z,39.18
2016-11-22T11:07:20.508Z,39.18
2016-11-22T11:08:29.199Z,39.37
2016-11-22T11:09:38.204Z,39.54
2016-11-22T11:10:47.819Z,39.66
2016-11-22T11:11:56.824Z,39.64
2016-11-22T11:13:06.436Z,39.47
2016-11-22T11:14:15.139Z,39.57
2016-11-22T11:15:24.473Z,39.47
2016-11-22T11:16:33.787Z,39.47
2016-11-22T11:17:42.488Z,39.47
2016-11-22T11:18:51.510Z,39.47
2016-11-22T11:20:00.510Z,39.47
2016-11-22T11:21:09.528Z,39.47
2016-11-22T11:22:18.539Z,39.57
2016-11-22T11:23:27.537Z,39.57
2016-11-22T11:24:36.267Z,39.47
2016-11-22T11:25:45.311Z,39.47
2016-11-22T11:26:54.417Z,39.37
2016-11-22T11:28:03.766Z,39.57
2016-11-22T11:29:12.792Z,39.47
2016-11-22T11:30:22.111Z,39.37
2016-11-22T11:31:31.427Z,39.57
2016-11-22T11:32:40.461Z,39.57
2016-11-22T11:33:49.486Z,39.57
2016-11-22T11:34:58.210Z,39.57
2016-11-22T11:36:07.563Z,39.28
2016-11-22T11:37:16.885Z,39.28
2016-11-22T11:38:25.938Z,38.99
2016-11-22T11:39:34.944Z,38.89
2016-11-22T11:40:43.955Z,39.18
2016-11-22T11:41:52.965Z,39.09
2016-11-22T11:43:02.051Z,38.99
2016-11-22T11:44:10.782Z,38.99
2016-11-22T11:45:20.109Z,38.99
2016-11-22T11:46:29.727Z,38.99
2016-11-22T11:47:38.503Z,38.89
2016-11-22T11:48:47.595Z,38.99
2016-11-22T11:49:56.915Z,38.99
2016-11-22T11:51:05.934Z,39.09
2016-11-22T11:52:14.971Z,38.99
2016-11-22T11:53:23.990Z,39.26
2016-11-22T11:54:33.629Z,39.09
2016-11-22T11:55:43.007Z,39.18
2016-11-22T11:56:52.050Z,38.99
2016-11-22T11:58:01.126Z,38.99
2016-11-22T11:59:09.886Z,38.99
2016-11-22T12:00:18.904Z,38.99
2016-11-22T12:01:27.635Z,38.79
2016-11-22T12:02:37.280Z,38.89
2016-11-22T12:03:46.299Z,39.09
2016-11-22T12:04:55.623Z,39.18
2016-11-22T12:06:04.636Z,39.09
2016-11-22T12:07:13.646Z,39.18
2016-11-22T12:08:22.963Z,39.18
2016-11-22T12:09:31.987Z,39.37
2016-11-22T12:10:41.620Z,39.28
2016-11-22T12:11:50.671Z,39.18
2016-11-22T12:12:59.394Z,39.28
2016-11-22T12:14:08.719Z,39.47
2016-11-22T12:15:17.409Z,39.28
2016-11-22T12:16:26.442Z,39.28
2016-11-22T12:17:35.775Z,39.37
2016-11-22T12:18:44.829Z,39.28
2016-11-22T12:19:53.904Z,39.37
2016-11-22T12:21:02.930Z,39.37
2016-11-22T12:22:11.651Z,39.28
2016-11-22T12:23:20.658Z,39.28
2016-11-22T12:24:29.676Z,39.18
2016-11-22T12:25:39.004Z,39.28
2016-11-22T12:26:48.053Z,39.37
2016-11-22T12:27:56.763Z,39.47
2016-11-22T12:29:06.462Z,39.47
2016-11-22T12:30:15.480Z,39.47
2016-11-22T12:31:24.207Z,39.47
2016-11-22T12:32:32.929Z,39.47
2016-11-22T12:33:41.645Z,39.47
2016-11-22T12:34:50.663Z,39.37
2016-11-22T12:35:59.687Z,39.37
2016-11-22T12:37:08.394Z,39.37
2016-11-22T12:38:17.699Z,39.47
2016-11-22T12:39:27.351Z,39.47
2016-11-22T12:40:36.393Z,39.47
2016-11-22T12:41:45.113Z,39.47
2016-11-22T12:42:53.820Z,39.37
2016-11-22T12:44:02.529Z,39.47
2016-11-22T12:45:12.195Z,39.47
2016-11-22T12:46:21.243Z,39.47
2016-11-22T12:47:29.966Z,39.47
2016-11-22T12:48:38.982Z,39.37
2016-11-22T12:49:48.027Z,39.47
2016-11-22T12:50:57.724Z,39.47
2016-11-22T12:52:06.758Z,39.47
2016-11-22T12:53:15.466Z,39.47
2016-11-22T12:54:25.470Z,39.47
2016-11-22T12:55:34.511Z,39.37
2016-11-22T12:56:43.531Z,39.47
2016-11-22T12:57:52.577Z,39.47
2016-11-22T12:59:01.594Z,39.37
2016-11-22T13:00:10.938Z,39.37
2016-11-22T13:01:19.647Z,39.47
2016-11-22T13:02:28.680Z,39.47
2016-11-22T13:03:37.407Z,39.37
2016-11-22T13:04:46.750Z,39.47
2016-11-22T13:05:55.783Z,39.47
2016-11-22T13:07:04.527Z,39.37
2016-11-22T13:08:13.879Z,39.45
2016-11-22T13:09:23.213Z,39.47
2016-11-22T13:10:31.939Z,39.47
2016-11-22T13:11:40.629Z,39.47
2016-11-22T13:12:49.686Z,39.47
2016-11-22T13:13:58.994Z,39.37
2016-11-22T13:15:08.326Z,39.37
2016-11-22T13:16:17.359Z,39.28
2016-11-22T13:17:26.106Z,39.37
2016-11-22T13:18:34.861Z,39.37
2016-11-22T13:19:44.187Z,39.37
2016-11-22T13:20:53.513Z,39.28
2016-11-22T13:22:03.173Z,39.28
2016-11-22T13:23:11.960Z,39.28
2016-11-22T13:24:20.988Z,39.26
2016-11-22T13:25:30.027Z,39.36
2016-11-22T13:26:39.071Z,39.18
2016-11-22T13:27:47.813Z,39.16
2016-11-22T13:28:57.146Z,38.97
2016-11-22T13:30:06.149Z,39.16
2016-11-22T13:31:15.811Z,39.06
2016-11-22T13:32:24.805Z,38.99
2016-11-22T13:33:33.540Z,39.06
2016-11-22T13:34:42.865Z,39.26
2016-11-22T13:35:51.612Z,38.97
2016-11-22T13:37:00.324Z,39.16
2016-11-22T13:38:09.648Z,39.26
2016-11-22T13:39:18.659Z,39.26
2016-11-22T13:40:27.975Z,39.26
2016-11-22T13:41:36.687Z,39.36
2016-11-22T13:42:45.704Z,38.87
2016-11-22T13:43:55.337Z,39.16
2016-11-22T13:45:04.402Z,39.26
2016-11-22T13:46:13.732Z,39.16
2016-11-22T13:47:22.448Z,39.36
2016-11-22T13:48:31.466Z,39.36
2016-11-22T13:49:40.531Z,39.26
2016-11-22T13:50:49.881Z,39.06
2016-11-22T13:51:59.218Z,39.26
2016-11-22T13:53:08.265Z,38.87
2016-11-22T13:54:17.261Z,38.97
2016-11-22T13:55:26.933Z,38.97
2016-11-22T13:56:35.953Z,39.06
2016-11-22T13:57:44.655Z,39.06
2016-11-22T13:58:53.688Z,38.87
2016-11-22T14:00:02.714Z,38.97
2016-11-22T14:01:11.440Z,39.16
2016-11-22T14:02:20.766Z,38.97
2016-11-22T14:03:29.776Z,38.87
2016-11-22T14:04:39.102Z,39.06
2016-11-22T14:05:48.175Z,39.16
2016-11-22T14:06:57.186Z,39.06
2016-11-22T14:08:06.215Z,38.97
2016-11-22T14:09:15.226Z,39.16
2016-11-22T14:10:24.246Z,39.16
2016-11-22T14:11:33.245Z,38.87
2016-11-22T14:12:41.945Z,38.97
2016-11-22T14:13:51.272Z,38.97
2016-11-22T14:15:00.595Z,39.06
2016-11-22T14:16:09.937Z,39.26
2016-11-22T14:17:18.984Z,39.06
2016-11-22T14:18:27.695Z,38.97
2016-11-22T14:19:36.418Z,38.97
2016-11-22T14:20:45.420Z,39.16
2016-11-22T14:21:54.123Z,39.26
2016-11-22T14:23:03.749Z,39.06
2016-11-22T14:24:12.750Z,39.64
2016-11-22T14:25:21.464Z,39.64
2016-11-22T14:26:30.201Z,39.64
2016-11-22T14:27:39.217Z,39.54
2016-11-22T14:28:48.266Z,39.54
2016-11-22T14:29:57.590Z,39.54
2016-11-22T14:31:06.337Z,39.54
2016-11-22T14:32:15.370Z,39.54
2016-11-22T14:33:24.994Z,39.54
2016-11-22T14:34:34.034Z,39.45
2016-11-22T14:35:43.047Z,39.54
2016-11-22T14:36:51.742Z,39.54
2016-11-22T14:38:01.124Z,39.45
2016-11-22T14:39:10.133Z,39.45
2016-11-22T14:40:18.863Z,39.54
2016-11-22T14:41:27.898Z,39.45
2016-11-22T14:42:36.964Z,39.45
2016-11-22T14:43:46.591Z,39.54
2016-11-22T14:44:55.905Z,39.54
2016-11-22T14:46:04.970Z,39.45
2016-11-22T14:47:13.988Z,39.36
2016-11-22T14:48:23.324Z,39.54
2016-11-22T14:49:32.083Z,39.54